createdAt,value
2023-01-17T00:00:28.750Z,973.2
2023-01-17T00:03:28.406Z,973.2
2023-01-17T00:06:28.860Z,973.2
2023-01-17T00:09:29.025Z,973.1
2023-01-17T00:12:28.235Z,973.1
2023-01-17T00:15:28.458Z,973.1
2023-01-17T00:18:28.456Z,973.1
2023-01-17T00:21:29.002Z,973
2023-01-17T00:24:29.082Z,973
2023-01-17T00:27:28.764Z,973
2023-01-17T00:30:28.931Z,973
2023-01-17T00:33:28.232Z,972.9
2023-01-17T00:36:28.843Z,972.9
2023-01-17T00:39:29.038Z,972.9
2023-01-17T00:42:28.231Z,972.9
2023-01-17T00:45:28.544Z,972.9
2023-01-17T00:48:28.538Z,972.8
2023-01-17T00:51:28.942Z,972.8
2023-01-17T00:54:28.225Z,972.8
2023-01-17T00:57:28.308Z,972.8
2023-01-17T01:00:28.997Z,972.8
2023-01-17T01:03:28.794Z,972.7
2023-01-17T01:06:28.908Z,972.7
2023-01-17T01:09:29.149Z,972.7
2023-01-17T01:12:28.703Z,972.7
2023-01-17T01:15:28.541Z,972.7
2023-01-17T01:18:29.108Z,972.7
2023-01-17T01:21:28.787Z,972.7
2023-01-17T01:24:29.068Z,972.7
2023-01-17T01:27:29.171Z,972.7
2023-01-17T01:30:28.347Z,972.7
2023-01-17T01:33:28.431Z,972.7
2023-01-17T01:36:28.433Z,972.7
2023-01-17T01:39:28.766Z,972.7
2023-01-17T01:42:28.288Z,972.7
2023-01-17T01:45:29.232Z,972.6
2023-01-17T01:48:28.608Z,972.6
2023-01-17T01:51:28.832Z,972.6
2023-01-17T01:54:28.772Z,972.6
2023-01-17T01:57:29.177Z,972.5
2023-01-17T02:00:28.374Z,972.5
2023-01-17T02:03:29.110Z,972.5
2023-01-17T02:06:28.154Z,972.5
2023-01-17T02:09:29.036Z,972.5
2023-01-17T02:12:28.628Z,972.5
2023-01-17T02:15:28.858Z,972.5
2023-01-17T02:18:28.456Z,972.5
2023-01-17T02:21:28.874Z,972.5
2023-01-17T02:24:28.698Z,972.5
2023-01-17T02:27:28.875Z,972.5
2023-01-17T02:30:29.426Z,972.5
2023-01-17T02:33:28.461Z,972.4
2023-01-17T02:36:28.596Z,972.4
2023-01-17T02:39:30.061Z,972.4
2023-01-17T02:42:29.149Z,972.4
2023-01-17T02:45:28.938Z,972.4
2023-01-17T02:48:28.448Z,972.4
2023-01-17T02:51:28.672Z,972.4
2023-01-17T02:54:28.777Z,972.4
2023-01-17T02:57:29.023Z,972.4
2023-01-17T03:00:29.235Z,972.4
2023-01-17T03:03:29.169Z,972.4
2023-01-17T03:06:28.361Z,972.4
2023-01-17T03:09:28.677Z,972.4
2023-01-17T03:12:28.595Z,972.4
2023-01-17T03:15:28.924Z,972.4
2023-01-17T03:18:28.114Z,972.4
2023-01-17T03:21:28.196Z,972.4
2023-01-17T03:24:29.020Z,972.4
2023-01-17T03:27:28.628Z,972.3
2023-01-17T03:30:29.013Z,972.3
2023-01-17T03:33:28.948Z,972.3
2023-01-17T03:36:28.296Z,972.3
2023-01-17T03:39:28.564Z,972.3
2023-01-17T03:42:28.541Z,972.4
2023-01-17T03:45:38.815Z,972.4
2023-01-17T03:48:28.387Z,972.4
2023-01-17T03:51:28.415Z,972.4
2023-01-17T03:54:28.911Z,972.4
2023-01-17T03:57:28.544Z,972.5
2023-01-17T04:00:28.751Z,972.5
2023-01-17T04:03:28.828Z,972.5
2023-01-17T04:06:43.232Z,972.5
2023-01-17T04:09:28.276Z,972.5
2023-01-17T04:12:28.199Z,972.4
2023-01-17T04:15:28.521Z,972.4
2023-01-17T04:18:28.829Z,972.4
2023-01-17T04:21:28.681Z,972.4
2023-01-17T04:24:29.013Z,972.4
2023-01-17T04:27:28.295Z,972.4
2023-01-17T04:30:28.378Z,972.4
2023-01-17T04:33:29.179Z,972.4
2023-01-17T04:36:28.275Z,972.4
2023-01-17T04:39:28.681Z,972.4
2023-01-17T04:42:28.594Z,972.4
2023-01-17T04:45:28.894Z,972.4
2023-01-17T04:48:28.619Z,972.4
2023-01-17T04:51:28.540Z,972.4
2023-01-17T04:54:28.781Z,972.4
2023-01-17T04:57:28.883Z,972.4
2023-01-17T05:00:29.033Z,972.4
2023-01-17T05:03:28.323Z,972.4
2023-01-17T05:06:28.463Z,972.5
2023-01-17T05:09:28.612Z,972.5
2023-01-17T05:12:29.101Z,972.6
2023-01-17T05:15:28.342Z,972.7
2023-01-17T05:18:28.268Z,972.8
2023-01-17T05:21:28.672Z,972.8
2023-01-17T05:24:29.071Z,972.9
2023-01-17T05:27:29.097Z,972.9
2023-01-17T05:30:28.750Z,972.9
2023-01-17T05:33:28.508Z,972.9
2023-01-17T05:36:28.514Z,973
2023-01-17T05:39:28.303Z,973
2023-01-17T05:42:29.029Z,973
2023-01-17T05:45:28.386Z,973
2023-01-17T05:48:29.098Z,973
2023-01-17T05:51:29.113Z,973
2023-01-17T05:54:28.540Z,973
2023-01-17T05:57:28.721Z,973.1
2023-01-17T06:00:29.171Z,973.1
2023-01-17T06:03:29.262Z,973.1
2023-01-17T06:06:29.427Z,973.2
2023-01-17T06:09:28.871Z,973.2
2023-01-17T06:12:28.444Z,973.3
2023-01-17T06:15:29.253Z,973.4
2023-01-17T06:18:28.399Z,973.5
2023-01-17T06:21:28.735Z,973.6
2023-01-17T06:24:29.067Z,973.6
2023-01-17T06:27:28.517Z,973.7
2023-01-17T06:30:28.869Z,973.8
2023-01-17T06:33:29.306Z,973.9
2023-01-17T06:36:29.180Z,974
2023-01-17T06:39:28.628Z,974.1
2023-01-17T06:42:28.924Z,974.2
2023-01-17T06:45:28.621Z,974.4
2023-01-17T06:48:28.938Z,974.4
2023-01-17T06:51:28.532Z,974.6
2023-01-17T06:54:29.103Z,974.7
2023-01-17T06:57:29.108Z,974.7
2023-01-17T07:00:29.647Z,974.9
2023-01-17T07:03:29.248Z,974.9
2023-01-17T07:06:28.720Z,975
2023-01-17T07:09:28.355Z,975
2023-01-17T07:12:28.764Z,975.1
2023-01-17T07:15:29.228Z,975.1
2023-01-17T07:18:28.714Z,975.1
2023-01-17T07:21:28.963Z,975.2
2023-01-17T07:24:28.871Z,975.3
2023-01-17T07:27:28.572Z,975.3
2023-01-17T07:30:29.041Z,975.4
2023-01-17T07:33:28.955Z,975.4
2023-01-17T07:36:29.329Z,975.5
2023-01-17T07:39:29.012Z,975.6
2023-01-17T07:42:28.890Z,975.6
2023-01-17T07:45:29.176Z,975.7
2023-01-17T07:48:28.627Z,975.8
2023-01-17T07:51:29.168Z,975.9
2023-01-17T07:54:29.160Z,975.9
2023-01-17T07:57:28.623Z,976
2023-01-17T08:00:28.448Z,976.1
2023-01-17T08:03:29.250Z,976.2
2023-01-17T08:06:28.615Z,976.2
2023-01-17T08:09:29.329Z,976.3
2023-01-17T08:12:28.868Z,976.3
2023-01-17T08:15:29.055Z,976.4
2023-01-17T08:18:28.465Z,976.5
2023-01-17T08:21:29.127Z,976.6
2023-01-17T08:24:29.271Z,976.6
2023-01-17T08:27:28.662Z,976.7
2023-01-17T08:30:29.931Z,976.7
2023-01-17T08:33:28.959Z,976.8
2023-01-17T08:36:28.411Z,976.9
2023-01-17T08:39:28.954Z,977
2023-01-17T08:42:28.396Z,977.1
2023-01-17T08:45:28.826Z,977.1
2023-01-17T08:48:28.792Z,977.1
2023-01-17T08:51:29.143Z,977.1
2023-01-17T08:54:28.390Z,977.1
2023-01-17T08:57:29.135Z,977.2
2023-01-17T09:00:29.128Z,977.2
2023-01-17T09:03:29.212Z,977.3
2023-01-17T09:06:28.465Z,977.4
2023-01-17T09:09:29.126Z,977.5
2023-01-17T09:12:28.587Z,977.7
2023-01-17T09:15:29.191Z,977.7
2023-01-17T09:18:28.561Z,977.7
2023-01-17T09:21:28.243Z,977.7
2023-01-17T09:24:28.555Z,977.7
2023-01-17T09:27:28.883Z,977.7
2023-01-17T09:30:28.841Z,977.8
2023-01-17T09:33:28.551Z,977.8
2023-01-17T09:36:28.911Z,977.7
2023-01-17T09:39:28.646Z,977.7
2023-01-17T09:42:28.557Z,977.8
2023-01-17T09:45:29.282Z,978
2023-01-17T09:48:28.708Z,978.2
2023-01-17T09:51:28.497Z,978.2
2023-01-17T09:54:28.795Z,978.2
2023-01-17T09:57:29.255Z,978.1
2023-01-17T10:00:28.831Z,978.2
2023-01-17T10:03:29.771Z,978.3
2023-01-17T10:06:29.110Z,978.4
2023-01-17T10:09:28.668Z,978.4
2023-01-17T10:12:29.134Z,978.4
2023-01-17T10:15:28.927Z,978.4
2023-01-17T10:18:30.827Z,978.4
2023-01-17T10:21:28.878Z,978.4
2023-01-17T10:24:28.431Z,978.4
2023-01-17T10:27:28.646Z,978.4
2023-01-17T10:30:32.860Z,978.4
2023-01-17T10:33:28.584Z,978.5
2023-01-17T10:36:29.126Z,978.5
2023-01-17T10:39:28.589Z,978.5
2023-01-17T10:42:28.325Z,978.5
2023-01-17T10:45:28.625Z,978.5
2023-01-17T10:48:28.390Z,978.5
2023-01-17T10:51:29.514Z,978.6
2023-01-17T10:54:29.210Z,978.6
2023-01-17T10:58:11.987Z,978.6
2023-01-17T11:00:29.382Z,978.7
2023-01-17T11:03:28.935Z,978.7
2023-01-17T11:06:28.468Z,978.8
2023-01-17T11:09:28.775Z,978.8
2023-01-17T11:12:28.526Z,978.8
2023-01-17T11:15:29.435Z,978.9
2023-01-17T11:18:29.130Z,978.8
2023-01-17T11:21:28.320Z,978.8
2023-01-17T11:24:28.478Z,978.8
2023-01-17T11:27:29.245Z,978.9
2023-01-17T11:30:29.222Z,979
2023-01-17T11:33:31.690Z,979.1
2023-01-17T11:36:28.493Z,979.1
2023-01-17T11:39:28.554Z,979.2
2023-01-17T11:42:29.121Z,979.2
2023-01-17T11:45:28.475Z,979.2
2023-01-17T11:48:28.390Z,979.2
2023-01-17T11:51:28.870Z,979.2
2023-01-17T11:54:29.175Z,979.2
2023-01-17T11:57:28.674Z,979.2
2023-01-17T12:01:17.057Z,979.2
2023-01-17T12:03:28.331Z,979.2
2023-01-17T12:06:28.917Z,979.3
2023-01-17T12:09:29.055Z,979.3
2023-01-17T12:12:28.688Z,979.4
2023-01-17T12:15:29.069Z,979.4
2023-01-17T12:18:29.199Z,979.4
2023-01-17T12:21:28.534Z,979.3
2023-01-17T12:24:28.963Z,979.3
2023-01-17T12:27:29.264Z,979.3
2023-01-17T12:30:28.703Z,979.3
2023-01-17T12:33:28.232Z,979.3
2023-01-17T12:36:28.892Z,979.4
2023-01-17T12:39:28.795Z,979.4
2023-01-17T12:42:29.272Z,979.5
2023-01-17T12:45:28.636Z,979.5
2023-01-17T12:48:28.721Z,979.6
2023-01-17T12:51:29.386Z,979.6
2023-01-17T12:54:28.853Z,979.7
2023-01-17T12:57:28.625Z,979.8
2023-01-17T13:00:29.044Z,979.8
2023-01-17T13:03:28.793Z,979.8
2023-01-17T13:06:29.126Z,979.8
2023-01-17T13:09:28.820Z,979.8
2023-01-17T13:12:29.149Z,979.9
2023-01-17T13:15:28.951Z,980
2023-01-17T13:18:28.895Z,980
2023-01-17T13:21:28.539Z,980
2023-01-17T13:24:28.955Z,980.1
2023-01-17T13:27:28.875Z,980.2
2023-01-17T13:30:36.889Z,980.2
2023-01-17T13:33:28.553Z,980.3
2023-01-17T13:36:28.628Z,980.3
2023-01-17T13:39:29.205Z,980.4
2023-01-17T13:42:29.266Z,980.4
2023-01-17T13:45:29.752Z,980.3
2023-01-17T13:48:29.208Z,980.3
2023-01-17T13:51:28.709Z,980.3
2023-01-17T13:54:29.297Z,980.3
2023-01-17T13:57:30.740Z,980.3
2023-01-17T14:00:37.624Z,980.4
2023-01-17T14:03:29.239Z,980.4
2023-01-17T14:06:28.676Z,980.4
2023-01-17T14:09:29.258Z,980.4
2023-01-17T14:12:28.840Z,980.4
2023-01-17T14:15:29.328Z,980.4
2023-01-17T14:18:29.005Z,980.4
2023-01-17T14:21:28.422Z,980.5
2023-01-17T14:24:28.742Z,980.5
2023-01-17T14:27:29.208Z,980.5
2023-01-17T14:30:32.563Z,980.5
2023-01-17T14:33:29.131Z,980.6
2023-01-17T14:36:29.059Z,980.7
2023-01-17T14:39:28.720Z,980.9
2023-01-17T14:42:29.462Z,980.9
2023-01-17T14:45:28.836Z,981
2023-01-17T14:48:29.469Z,981
2023-01-17T14:51:29.131Z,981
2023-01-17T14:54:29.131Z,981
2023-01-17T14:57:28.674Z,981
2023-01-17T15:00:28.303Z,981
2023-01-17T15:03:28.769Z,981.1
2023-01-17T15:06:28.875Z,981.1
2023-01-17T15:09:28.333Z,981.2
2023-01-17T15:12:29.045Z,981.2
2023-01-17T15:15:29.118Z,981.2
2023-01-17T15:18:28.707Z,981.2
2023-01-17T15:21:29.023Z,981.2
2023-01-17T15:24:28.436Z,981.3
2023-01-17T15:27:28.708Z,981.3
2023-01-17T15:30:29.167Z,981.3
2023-01-17T15:33:28.710Z,981.3
2023-01-17T15:36:29.097Z,981.3
2023-01-17T15:39:29.167Z,981.3
2023-01-17T15:42:28.393Z,981.3
2023-01-17T15:45:28.630Z,981.3
2023-01-17T15:48:29.359Z,981.3
2023-01-17T15:51:28.610Z,981.4
2023-01-17T15:54:29.291Z,981.4
2023-01-17T15:57:28.807Z,981.4
2023-01-17T16:00:28.557Z,981.4
2023-01-17T16:03:28.818Z,981.4
2023-01-17T16:06:29.410Z,981.5
2023-01-17T16:09:28.704Z,981.5
2023-01-17T16:12:28.717Z,981.6
2023-01-17T16:15:28.977Z,981.6
2023-01-17T16:18:28.980Z,981.6
2023-01-17T16:21:28.924Z,981.6
2023-01-17T16:24:28.506Z,981.6
2023-01-17T16:27:28.984Z,981.6
2023-01-17T16:30:28.942Z,981.6
2023-01-17T16:33:28.578Z,981.7
2023-01-17T16:36:29.107Z,981.7
2023-01-17T16:39:28.465Z,981.7
2023-01-17T16:42:29.273Z,981.7
2023-01-17T16:45:28.795Z,981.8
2023-01-17T16:48:28.798Z,981.8
2023-01-17T16:51:28.645Z,981.8
2023-01-17T16:54:28.273Z,981.9
2023-01-17T16:57:28.594Z,981.9
2023-01-17T17:00:28.432Z,982
2023-01-17T17:03:28.426Z,982
2023-01-17T17:06:28.594Z,982
2023-01-17T17:09:28.457Z,982.1
2023-01-17T17:12:28.380Z,982.1
2023-01-17T17:18:28.451Z,982.2
2023-01-17T17:21:29.073Z,982.2
2023-01-17T17:24:28.384Z,982.2
2023-01-17T17:27:28.795Z,982.2
2023-01-17T17:30:30.284Z,982.2
2023-01-17T17:33:28.605Z,982.2
2023-01-17T17:36:29.266Z,982.2
2023-01-17T17:39:28.769Z,982.2
2023-01-17T17:42:29.328Z,982.2
2023-01-17T17:45:29.091Z,982.3
2023-01-17T17:48:29.267Z,982.3
2023-01-17T17:51:29.023Z,982.4
2023-01-17T17:54:28.599Z,982.4
2023-01-17T17:57:28.353Z,982.4
2023-01-17T18:00:28.556Z,982.5
2023-01-17T18:03:29.040Z,982.5
2023-01-17T18:06:28.512Z,982.6
2023-01-17T18:09:28.965Z,982.6
2023-01-17T18:12:28.602Z,982.7
2023-01-17T18:15:29.178Z,982.7
2023-01-17T18:18:28.449Z,982.7
2023-01-17T18:21:28.986Z,982.8
2023-01-17T18:24:28.741Z,982.8
2023-01-17T18:27:28.888Z,982.9
2023-01-17T18:30:29.208Z,982.9
2023-01-17T18:33:28.425Z,982.9
2023-01-17T18:36:28.840Z,982.9
2023-01-17T18:39:28.930Z,982.9
2023-01-17T18:42:28.638Z,982.9
2023-01-17T18:45:28.799Z,982.9
2023-01-17T18:48:29.131Z,983
2023-01-17T18:51:28.427Z,983
2023-01-17T18:54:28.873Z,983
2023-01-17T18:57:28.798Z,983.1
2023-01-17T19:00:29.549Z,983.1
2023-01-17T19:03:28.679Z,983.1
2023-01-17T19:06:28.541Z,983.1
2023-01-17T19:09:29.255Z,983.2
2023-01-17T19:12:28.618Z,983.2
2023-01-17T19:15:28.816Z,983.2
2023-01-17T19:18:28.705Z,983.2
2023-01-17T19:21:28.515Z,983.2
2023-01-17T19:24:28.220Z,983.2
2023-01-17T19:27:28.586Z,983.2
2023-01-17T19:30:29.154Z,983.3
2023-01-17T19:33:29.272Z,983.3
2023-01-17T19:36:28.800Z,983.3
2023-01-17T19:39:28.501Z,983.3
2023-01-17T19:42:28.200Z,983.3
2023-01-17T19:45:29.277Z,983.3
2023-01-17T19:48:28.445Z,983.3
2023-01-17T19:51:28.375Z,983.3
2023-01-17T19:54:29.232Z,983.3
2023-01-17T19:57:28.990Z,983.4
2023-01-17T20:00:32.668Z,983.4
2023-01-17T20:03:28.774Z,983.4
2023-01-17T20:06:29.101Z,983.4
2023-01-17T20:09:28.671Z,983.4
2023-01-17T20:12:29.004Z,983.5
2023-01-17T20:15:28.266Z,983.5
2023-01-17T20:18:28.628Z,983.5
2023-01-17T20:21:29.136Z,983.5
2023-01-17T20:24:30.553Z,983.5
2023-01-17T20:27:29.102Z,983.5
2023-01-17T20:30:29.355Z,983.5
2023-01-17T20:33:28.628Z,983.5
2023-01-17T20:36:29.036Z,983.5
2023-01-17T20:39:28.785Z,983.5
2023-01-17T20:42:29.079Z,983.5
2023-01-17T20:45:28.391Z,983.5
2023-01-17T20:48:29.029Z,983.5
2023-01-17T20:51:28.948Z,983.5
2023-01-17T20:54:29.116Z,983.6
2023-01-17T20:57:28.627Z,983.6
2023-01-17T21:00:29.350Z,983.6
2023-01-17T21:03:28.474Z,983.6
2023-01-17T21:06:29.032Z,983.6
2023-01-17T21:09:28.473Z,983.6
2023-01-17T21:12:28.972Z,983.6
2023-01-17T21:15:28.833Z,983.6
2023-01-17T21:18:29.086Z,983.6
2023-01-17T21:21:29.249Z,983.6
2023-01-17T21:24:29.317Z,983.6
2023-01-17T21:27:28.992Z,983.6
2023-01-17T21:30:29.611Z,983.6
2023-01-17T21:33:28.839Z,983.7
2023-01-17T21:36:29.106Z,983.7
2023-01-17T21:39:44.075Z,983.7
2023-01-17T21:42:28.862Z,983.8
2023-01-17T21:45:29.105Z,983.9
2023-01-17T21:48:28.468Z,983.9
2023-01-17T21:51:28.817Z,984
2023-01-17T21:54:29.128Z,984
2023-01-17T21:57:28.532Z,984
2023-01-17T22:00:28.718Z,984
2023-01-17T22:03:28.599Z,984.1
2023-01-17T22:06:28.939Z,984.1
2023-01-17T22:09:28.599Z,984.1
2023-01-17T22:12:28.702Z,984.1
2023-01-17T22:15:29.278Z,984.1
2023-01-17T22:18:29.013Z,984.1
2023-01-17T22:21:28.840Z,984.2
2023-01-17T22:24:28.438Z,984.2
2023-01-17T22:27:28.798Z,984.2
2023-01-17T22:30:29.266Z,984.2
2023-01-17T22:33:28.511Z,984.3
2023-01-17T22:36:28.991Z,984.4
2023-01-17T22:39:28.594Z,984.4
2023-01-17T22:42:28.758Z,984.4
2023-01-17T22:45:29.055Z,984.4
2023-01-17T22:48:28.370Z,984.5
2023-01-17T22:51:28.384Z,984.5
2023-01-17T22:54:28.763Z,984.4
2023-01-17T22:57:29.321Z,984.5
2023-01-17T23:00:28.618Z,984.5
2023-01-17T23:03:29.267Z,984.5
2023-01-17T23:06:28.336Z,984.6
2023-01-17T23:09:28.457Z,984.6
2023-01-17T23:12:28.725Z,984.6
2023-01-17T23:15:28.988Z,984.6
2023-01-17T23:18:28.618Z,984.6
2023-01-17T23:21:28.683Z,984.7
2023-01-17T23:24:28.767Z,984.7
2023-01-17T23:27:47.903Z,984.7
2023-01-17T23:30:28.686Z,984.7
2023-01-17T23:33:28.767Z,984.8
2023-01-17T23:36:29.020Z,984.8
2023-01-17T23:39:28.944Z,984.8
2023-01-17T23:42:28.380Z,984.8
2023-01-17T23:45:29.208Z,984.8
2023-01-17T23:48:29.036Z,984.8
2023-01-17T23:51:28.859Z,984.8
2023-01-17T23:54:28.458Z,984.8
2023-01-17T23:57:29.014Z,984.8
